DTTR

El Borma Airport

El Borma, Tunisia
METAR DTTR 201600Z 31006KT 270V360 9999 SCT023 38/11 Q1011
Observed Flight Rules
Aug-20 @ 16:00 UTC (12 hours ago) Visual Flight Rules
Wind Visibility Clouds
310° at 6 knots 10,000+ meters
  • Scattered at 2,300' AGL
Temperatures Readings
Current 38°C / 100°F
Dewpoint 11°C / 52°F
Humidity 20%
Altimeter 29.85" Hg
Pressure 1011 hPa
Elevation 259
METAR DTTR 201600Z 31006KT 270V360 9999 SCT023 38/11 Q1011
Observed Flight Rules
Aug-20 @ 16:00 UTC
(12 hours ago)
VFR
Wind Visibility
310° at 6 knots 10,000+ meters
Clouds
  • Scattered at 2,300' AGL
Temperature Dewpoint
38°C / 100°F 11°C / 52°F
Humidity Altimeter Pressure
20% 29.85" Hg 1011 hPa